sensor_id;sensor_type;location;lat;lon;timestamp;temperature;humidity
20446;DHT22;10382;49.140;9.234;2023-05-07T00:00:24;18.50;99.90
20446;DHT22;10382;49.140;9.234;2023-05-07T00:02:52;18.50;99.90
20446;DHT22;10382;49.140;9.234;2023-05-07T00:05:19;18.50;99.90
20446;DHT22;10382;49.140;9.234;2023-05-07T00:07:47;18.50;99.90
20446;DHT22;10382;49.140;9.234;2023-05-07T00:10:14;18.50;99.90
20446;DHT22;10382;49.140;9.234;2023-05-07T00:12:41;18.40;99.90
20446;DHT22;10382;49.140;9.234;2023-05-07T00:15:08;18.50;99.90
20446;DHT22;10382;49.140;9.234;2023-05-07T00:17:35;18.40;99.90
20446;DHT22;10382;49.140;9.234;2023-05-07T00:20:05;18.40;99.90
20446;DHT22;10382;49.140;9.234;2023-05-07T00:22:32;18.40;99.90
20446;DHT22;10382;49.140;9.234;2023-05-07T00:24:59;18.50;99.90
20446;DHT22;10382;49.140;9.234;2023-05-07T00:27:26;18.30;99.90
20446;DHT22;10382;49.140;9.234;2023-05-07T00:29:52;18.30;99.90
20446;DHT22;10382;49.140;9.234;2023-05-07T00:32:19;18.30;99.90
20446;DHT22;10382;49.140;9.234;2023-05-07T00:34:46;18.40;99.90
20446;DHT22;10382;49.140;9.234;2023-05-07T00:37:14;18.30;99.90
20446;DHT22;10382;49.140;9.234;2023-05-07T00:39:41;18.30;99.90
20446;DHT22;10382;49.140;9.234;2023-05-07T00:42:08;18.20;99.90
20446;DHT22;10382;49.140;9.234;2023-05-07T00:44:35;18.20;99.90
20446;DHT22;10382;49.140;9.234;2023-05-07T00:47:03;18.20;99.90
20446;DHT22;10382;49.140;9.234;2023-05-07T00:49:37;18.20;99.90
20446;DHT22;10382;49.140;9.234;2023-05-07T00:52:06;18.10;99.90
20446;DHT22;10382;49.140;9.234;2023-05-07T00:54:35;18.10;99.90
20446;DHT22;10382;49.140;9.234;2023-05-07T00:57:03;18.10;99.90
20446;DHT22;10382;49.140;9.234;2023-05-07T00:59:30;17.90;99.90
20446;DHT22;10382;49.140;9.234;2023-05-07T01:01:58;17.80;99.90
20446;DHT22;10382;49.140;9.234;2023-05-07T01:04:26;17.80;99.90
20446;DHT22;10382;49.140;9.234;2023-05-07T01:06:54;17.70;99.90
20446;DHT22;10382;49.140;9.234;2023-05-07T01:09:23;17.70;99.90
20446;DHT22;10382;49.140;9.234;2023-05-07T01:11:52;17.60;99.90
20446;DHT22;10382;49.140;9.234;2023-05-07T01:14:20;17.60;99.90
20446;DHT22;10382;49.140;9.234;2023-05-07T01:16:47;17.50;99.90
20446;DHT22;10382;49.140;9.234;2023-05-07T01:19:18;17.50;99.90
20446;DHT22;10382;49.140;9.234;2023-05-07T01:21:47;17.50;99.90
20446;DHT22;10382;49.140;9.234;2023-05-07T01:24:15;17.40;99.90
20446;DHT22;10382;49.140;9.234;2023-05-07T01:26:43;17.40;99.90
20446;DHT22;10382;49.140;9.234;2023-05-07T01:29:10;17.30;99.90
20446;DHT22;10382;49.140;9.234;2023-05-07T01:31:38;17.20;99.90
20446;DHT22;10382;49.140;9.234;2023-05-07T01:34:07;17.10;99.90
20446;DHT22;10382;49.140;9.234;2023-05-07T01:36:36;17.10;99.90
20446;DHT22;10382;49.140;9.234;2023-05-07T01:39:04;17.00;99.90
20446;DHT22;10382;49.140;9.234;2023-05-07T01:41:33;17.10;99.90
20446;DHT22;10382;49.140;9.234;2023-05-07T01:44:01;17.20;99.90
20446;DHT22;10382;49.140;9.234;2023-05-07T01:46:30;17.20;99.90
20446;DHT22;10382;49.140;9.234;2023-05-07T01:48:57;17.20;99.90
20446;DHT22;10382;49.140;9.234;2023-05-07T01:51:24;17.20;99.90
20446;DHT22;10382;49.140;9.234;2023-05-07T01:53:52;17.10;99.90
20446;DHT22;10382;49.140;9.234;2023-05-07T01:56:19;17.10;99.90
20446;DHT22;10382;49.140;9.234;2023-05-07T01:58:48;17.10;99.90
20446;DHT22;10382;49.140;9.234;2023-05-07T02:01:16;17.20;99.90
20446;DHT22;10382;49.140;9.234;2023-05-07T02:03:43;17.20;99.90
20446;DHT22;10382;49.140;9.234;2023-05-07T02:06:10;17.10;99.90
20446;DHT22;10382;49.140;9.234;2023-05-07T02:08:37;17.10;99.90
20446;DHT22;10382;49.140;9.234;2023-05-07T02:11:04;17.00;99.90
20446;DHT22;10382;49.140;9.234;2023-05-07T02:13:32;17.00;99.90
20446;DHT22;10382;49.140;9.234;2023-05-07T02:16:01;16.80;99.90
20446;DHT22;10382;49.140;9.234;2023-05-07T02:18:28;16.80;99.90
20446;DHT22;10382;49.140;9.234;2023-05-07T02:20:55;16.70;99.90
20446;DHT22;10382;49.140;9.234;2023-05-07T02:23:22;16.70;99.90
20446;DHT22;10382;49.140;9.234;2023-05-07T02:25:49;16.60;99.90
20446;DHT22;10382;49.140;9.234;2023-05-07T02:28:15;16.60;99.90
20446;DHT22;10382;49.140;9.234;2023-05-07T02:30:42;16.50;99.90
20446;DHT22;10382;49.140;9.234;2023-05-07T02:33:11;16.40;99.90
20446;DHT22;10382;49.140;9.234;2023-05-07T02:35:38;16.30;99.90
20446;DHT22;10382;49.140;9.234;2023-05-07T02:38:04;16.30;99.90
20446;DHT22;10382;49.140;9.234;2023-05-07T02:40:31;16.30;99.90
20446;DHT22;10382;49.140;9.234;2023-05-07T02:43:04;16.30;99.90
20446;DHT22;10382;49.140;9.234;2023-05-07T02:45:31;16.30;99.90
20446;DHT22;10382;49.140;9.234;2023-05-07T02:47:57;16.20;99.90
20446;DHT22;10382;49.140;9.234;2023-05-07T02:50:26;16.20;99.90
20446;DHT22;10382;49.140;9.234;2023-05-07T02:52:53;16.10;99.90
20446;DHT22;10382;49.140;9.234;2023-05-07T02:55:20;16.10;99.90
20446;DHT22;10382;49.140;9.234;2023-05-07T02:57:46;15.90;99.90
20446;DHT22;10382;49.140;9.234;2023-05-07T03:00:15;15.80;99.90
20446;DHT22;10382;49.140;9.234;2023-05-07T03:02:42;15.70;99.90
20446;DHT22;10382;49.140;9.234;2023-05-07T03:05:09;15.70;99.90
20446;DHT22;10382;49.140;9.234;2023-05-07T03:07:37;15.60;99.90
20446;DHT22;10382;49.140;9.234;2023-05-07T03:10:05;15.60;99.90
20446;DHT22;10382;49.140;9.234;2023-05-07T03:12:32;15.70;99.90
20446;DHT22;10382;49.140;9.234;2023-05-07T03:14:59;15.60;99.90
20446;DHT22;10382;49.140;9.234;2023-05-07T03:17:26;15.60;99.90
20446;DHT22;10382;49.140;9.234;2023-05-07T03:19:53;15.70;99.90
20446;DHT22;10382;49.140;9.234;2023-05-07T03:22:20;15.70;99.90
20446;DHT22;10382;49.140;9.234;2023-05-07T03:24:48;15.60;99.90
20446;DHT22;10382;49.140;9.234;2023-05-07T03:27:15;15.40;99.90
20446;DHT22;10382;49.140;9.234;2023-05-07T03:29:42;15.20;99.90
20446;DHT22;10382;49.140;9.234;2023-05-07T03:32:08;15.00;99.90
20446;DHT22;10382;49.140;9.234;2023-05-07T03:34:35;14.90;99.90
20446;DHT22;10382;49.140;9.234;2023-05-07T03:37:02;14.80;99.90
20446;DHT22;10382;49.140;9.234;2023-05-07T03:39:29;14.80;99.90
20446;DHT22;10382;49.140;9.234;2023-05-07T03:41:58;14.90;99.90
20446;DHT22;10382;49.140;9.234;2023-05-07T03:44:26;14.90;99.90
20446;DHT22;10382;49.140;9.234;2023-05-07T03:46:53;15.10;99.90
20446;DHT22;10382;49.140;9.234;2023-05-07T03:49:20;15.10;99.90
20446;DHT22;10382;49.140;9.234;2023-05-07T03:51:47;15.20;99.90
20446;DHT22;10382;49.140;9.234;2023-05-07T03:54:14;15.20;99.90
20446;DHT22;10382;49.140;9.234;2023-05-07T03:56:41;15.20;99.90
20446;DHT22;10382;49.140;9.234;2023-05-07T03:59:09;15.20;99.90
20446;DHT22;10382;49.140;9.234;2023-05-07T04:01:36;15.20;99.90
20446;DHT22;10382;49.140;9.234;2023-05-07T04:04:03;15.20;99.90
20446;DHT22;10382;49.140;9.234;2023-05-07T04:06:30;15.20;99.90
20446;DHT22;10382;49.140;9.234;2023-05-07T04:08:57;15.30;99.90
20446;DHT22;10382;49.140;9.234;2023-05-07T04:11:24;15.40;99.90
20446;DHT22;10382;49.140;9.234;2023-05-07T04:13:51;15.40;99.90
20446;DHT22;10382;49.140;9.234;2023-05-07T04:16:19;15.40;99.90
20446;DHT22;10382;49.140;9.234;2023-05-07T04:18:46;15.50;99.90
20446;DHT22;10382;49.140;9.234;2023-05-07T04:21:16;15.50;99.90
20446;DHT22;10382;49.140;9.234;2023-05-07T04:23:43;15.50;99.90
20446;DHT22;10382;49.140;9.234;2023-05-07T04:26:10;15.50;99.90
20446;DHT22;10382;49.140;9.234;2023-05-07T04:28:37;15.50;99.90
20446;DHT22;10382;49.140;9.234;2023-05-07T04:31:04;15.50;99.90
20446;DHT22;10382;49.140;9.234;2023-05-07T04:33:33;15.60;99.90
20446;DHT22;10382;49.140;9.234;2023-05-07T04:36:02;15.60;99.90
20446;DHT22;10382;49.140;9.234;2023-05-07T04:38:29;15.70;99.90
20446;DHT22;10382;49.140;9.234;2023-05-07T04:40:56;15.70;99.90
20446;DHT22;10382;49.140;9.234;2023-05-07T04:43:23;15.70;99.90
20446;DHT22;10382;49.140;9.234;2023-05-07T04:45:51;15.80;99.90
20446;DHT22;10382;49.140;9.234;2023-05-07T04:48:18;15.80;99.90
20446;DHT22;10382;49.140;9.234;2023-05-07T04:50:48;15.80;99.90
20446;DHT22;10382;49.140;9.234;2023-05-07T04:53:16;15.90;99.90
20446;DHT22;10382;49.140;9.234;2023-05-07T04:55:43;15.90;99.90
20446;DHT22;10382;49.140;9.234;2023-05-07T04:58:10;15.90;99.90
20446;DHT22;10382;49.140;9.234;2023-05-07T05:00:37;16.00;99.90
20446;DHT22;10382;49.140;9.234;2023-05-07T05:03:04;16.10;99.90
20446;DHT22;10382;49.140;9.234;2023-05-07T05:05:31;16.20;99.90
20446;DHT22;10382;49.140;9.234;2023-05-07T05:07:59;16.30;99.90
20446;DHT22;10382;49.140;9.234;2023-05-07T05:10:26;16.40;99.90
20446;DHT22;10382;49.140;9.234;2023-05-07T05:12:53;16.60;99.90
20446;DHT22;10382;49.140;9.234;2023-05-07T05:15:20;16.70;99.90
20446;DHT22;10382;49.140;9.234;2023-05-07T05:17:47;16.80;99.90
20446;DHT22;10382;49.140;9.234;2023-05-07T05:20:14;16.90;99.90
20446;DHT22;10382;49.140;9.234;2023-05-07T05:22:41;16.90;99.90
20446;DHT22;10382;49.140;9.234;2023-05-07T05:25:10;17.00;99.90
20446;DHT22;10382;49.140;9.234;2023-05-07T05:27:37;17.00;99.90
20446;DHT22;10382;49.140;9.234;2023-05-07T05:30:04;16.80;99.90
20446;DHT22;10382;49.140;9.234;2023-05-07T05:32:31;16.70;99.90
20446;DHT22;10382;49.140;9.234;2023-05-07T05:34:58;16.60;99.90
20446;DHT22;10382;49.140;9.234;2023-05-07T05:37:25;16.70;99.90
20446;DHT22;10382;49.140;9.234;2023-05-07T05:39:52;16.90;99.90
20446;DHT22;10382;49.140;9.234;2023-05-07T05:42:21;16.90;99.90
20446;DHT22;10382;49.140;9.234;2023-05-07T05:44:48;17.00;99.90
20446;DHT22;10382;49.140;9.234;2023-05-07T05:47:15;17.20;99.90
20446;DHT22;10382;49.140;9.234;2023-05-07T05:49:42;17.30;99.90
20446;DHT22;10382;49.140;9.234;2023-05-07T05:52:09;17.40;99.90
20446;DHT22;10382;49.140;9.234;2023-05-07T05:54:36;17.60;99.90
20446;DHT22;10382;49.140;9.234;2023-05-07T05:57:04;17.70;99.90
20446;DHT22;10382;49.140;9.234;2023-05-07T05:59:32;17.90;99.90
20446;DHT22;10382;49.140;9.234;2023-05-07T06:01:59;18.10;99.90
20446;DHT22;10382;49.140;9.234;2023-05-07T06:04:26;18.30;99.90
20446;DHT22;10382;49.140;9.234;2023-05-07T06:06:53;18.50;99.90
20446;DHT22;10382;49.140;9.234;2023-05-07T06:09:20;18.80;99.90
20446;DHT22;10382;49.140;9.234;2023-05-07T06:11:47;19.00;99.90
20446;DHT22;10382;49.140;9.234;2023-05-07T06:14:14;19.20;99.90
20446;DHT22;10382;49.140;9.234;2023-05-07T06:16:42;19.50;99.90
20446;DHT22;10382;49.140;9.234;2023-05-07T06:19:09;19.90;99.90
20446;DHT22;10382;49.140;9.234;2023-05-07T06:21:36;20.30;99.90
20446;DHT22;10382;49.140;9.234;2023-05-07T06:24:02;20.70;99.90
20446;DHT22;10382;49.140;9.234;2023-05-07T06:26:29;21.00;99.90
20446;DHT22;10382;49.140;9.234;2023-05-07T06:28:56;21.40;99.90
20446;DHT22;10382;49.140;9.234;2023-05-07T06:31:28;21.80;99.90
20446;DHT22;10382;49.140;9.234;2023-05-07T06:33:57;22.00;99.90
20446;DHT22;10382;49.140;9.234;2023-05-07T06:36:24;22.20;99.90
20446;DHT22;10382;49.140;9.234;2023-05-07T06:38:51;22.30;99.90
20446;DHT22;10382;49.140;9.234;2023-05-07T06:41:18;22.40;99.90
20446;DHT22;10382;49.140;9.234;2023-05-07T06:43:45;22.40;99.90
20446;DHT22;10382;49.140;9.234;2023-05-07T06:46:12;22.40;99.90
20446;DHT22;10382;49.140;9.234;2023-05-07T06:48:39;22.40;99.90
20446;DHT22;10382;49.140;9.234;2023-05-07T06:51:07;22.30;99.90
20446;DHT22;10382;49.140;9.234;2023-05-07T06:53:35;22.30;99.90
20446;DHT22;10382;49.140;9.234;2023-05-07T06:56:02;22.40;99.90
20446;DHT22;10382;49.140;9.234;2023-05-07T06:58:29;22.40;99.90
20446;DHT22;10382;49.140;9.234;2023-05-07T07:00:56;22.60;99.90
20446;DHT22;10382;49.140;9.234;2023-05-07T07:03:23;23.00;99.90
20446;DHT22;10382;49.140;9.234;2023-05-07T07:05:51;23.40;99.90
20446;DHT22;10382;49.140;9.234;2023-05-07T07:08:20;23.80;99.90
20446;DHT22;10382;49.140;9.234;2023-05-07T07:10:47;23.90;99.90
20446;DHT22;10382;49.140;9.234;2023-05-07T07:13:15;24.10;99.90
20446;DHT22;10382;49.140;9.234;2023-05-07T07:15:42;24.30;99.90
20446;DHT22;10382;49.140;9.234;2023-05-07T07:18:09;24.90;99.90
20446;DHT22;10382;49.140;9.234;2023-05-07T07:20:35;25.40;99.90
20446;DHT22;10382;49.140;9.234;2023-05-07T07:23:02;26.00;99.90
20446;DHT22;10382;49.140;9.234;2023-05-07T07:25:31;26.30;99.90
20446;DHT22;10382;49.140;9.234;2023-05-07T07:27:57;26.60;99.90
20446;DHT22;10382;49.140;9.234;2023-05-07T07:30:25;26.80;99.80
20446;DHT22;10382;49.140;9.234;2023-05-07T07:32:52;27.00;99.40
20446;DHT22;10382;49.140;9.234;2023-05-07T07:35:19;26.50;98.50
20446;DHT22;10382;49.140;9.234;2023-05-07T07:37:47;26.40;99.70
20446;DHT22;10382;49.140;9.234;2023-05-07T07:40:15;26.20;99.90
20446;DHT22;10382;49.140;9.234;2023-05-07T07:42:43;26.30;99.10
20446;DHT22;10382;49.140;9.234;2023-05-07T07:45:10;26.40;99.90
20446;DHT22;10382;49.140;9.234;2023-05-07T07:47:38;26.70;99.90
20446;DHT22;10382;49.140;9.234;2023-05-07T07:50:06;26.80;99.00
20446;DHT22;10382;49.140;9.234;2023-05-07T07:52:33;26.80;97.80
20446;DHT22;10382;49.140;9.234;2023-05-07T07:55:00;26.80;98.30
20446;DHT22;10382;49.140;9.234;2023-05-07T07:57:27;26.70;98.80
20446;DHT22;10382;49.140;9.234;2023-05-07T07:59:55;26.60;98.80
20446;DHT22;10382;49.140;9.234;2023-05-07T08:02:22;26.60;99.20
20446;DHT22;10382;49.140;9.234;2023-05-07T08:04:49;26.60;99.70
20446;DHT22;10382;49.140;9.234;2023-05-07T08:07:16;26.60;99.20
20446;DHT22;10382;49.140;9.234;2023-05-07T08:09:46;26.50;99.50
20446;DHT22;10382;49.140;9.234;2023-05-07T08:12:13;26.40;99.40
20446;DHT22;10382;49.140;9.234;2023-05-07T08:14:39;26.20;99.90
20446;DHT22;10382;49.140;9.234;2023-05-07T08:17:08;26.30;99.90
20446;DHT22;10382;49.140;9.234;2023-05-07T08:19:35;26.30;99.90
20446;DHT22;10382;49.140;9.234;2023-05-07T08:22:02;26.50;99.90
20446;DHT22;10382;49.140;9.234;2023-05-07T08:24:29;26.60;99.90
20446;DHT22;10382;49.140;9.234;2023-05-07T08:26:56;26.70;99.90
20446;DHT22;10382;49.140;9.234;2023-05-07T08:29:23;26.70;99.90
20446;DHT22;10382;49.140;9.234;2023-05-07T08:31:50;26.90;99.60
20446;DHT22;10382;49.140;9.234;2023-05-07T08:34:18;27.10;99.90
20446;DHT22;10382;49.140;9.234;2023-05-07T08:36:45;27.00;99.70
20446;DHT22;10382;49.140;9.234;2023-05-07T08:39:14;27.00;99.50
20446;DHT22;10382;49.140;9.234;2023-05-07T08:41:44;27.00;98.80
20446;DHT22;10382;49.140;9.234;2023-05-07T08:44:12;27.10;98.90
20446;DHT22;10382;49.140;9.234;2023-05-07T08:46:39;27.20;99.20
20446;DHT22;10382;49.140;9.234;2023-05-07T08:49:08;27.30;99.40
20446;DHT22;10382;49.140;9.234;2023-05-07T08:51:36;27.30;98.50
20446;DHT22;10382;49.140;9.234;2023-05-07T08:54:03;27.40;98.40
20446;DHT22;10382;49.140;9.234;2023-05-07T08:56:31;27.40;99.10
20446;DHT22;10382;49.140;9.234;2023-05-07T08:58:58;27.50;98.50
20446;DHT22;10382;49.140;9.234;2023-05-07T09:01:24;27.70;97.80
20446;DHT22;10382;49.140;9.234;2023-05-07T09:03:52;27.90;97.50
20446;DHT22;10382;49.140;9.234;2023-05-07T09:06:19;28.10;97.80
20446;DHT22;10382;49.140;9.234;2023-05-07T09:08:50;28.20;97.70
20446;DHT22;10382;49.140;9.234;2023-05-07T09:11:20;28.30;97.50
20446;DHT22;10382;49.140;9.234;2023-05-07T09:13:47;28.50;96.50
20446;DHT22;10382;49.140;9.234;2023-05-07T09:16:15;28.50;96.20
20446;DHT22;10382;49.140;9.234;2023-05-07T09:18:43;28.70;96.30
20446;DHT22;10382;49.140;9.234;2023-05-07T09:21:10;28.90;95.40
20446;DHT22;10382;49.140;9.234;2023-05-07T09:23:38;29.10;94.60
20446;DHT22;10382;49.140;9.234;2023-05-07T09:26:06;29.20;93.70
20446;DHT22;10382;49.140;9.234;2023-05-07T09:28:38;29.40;92.90
20446;DHT22;10382;49.140;9.234;2023-05-07T09:31:06;29.40;92.30
20446;DHT22;10382;49.140;9.234;2023-05-07T09:33:33;29.20;93.20
20446;DHT22;10382;49.140;9.234;2023-05-07T09:36:02;29.10;92.40
20446;DHT22;10382;49.140;9.234;2023-05-07T09:38:30;28.90;92.00
20446;DHT22;10382;49.140;9.234;2023-05-07T09:41:06;28.80;93.10
20446;DHT22;10382;49.140;9.234;2023-05-07T09:43:34;28.90;92.40
20446;DHT22;10382;49.140;9.234;2023-05-07T09:46:08;29.00;93.10
20446;DHT22;10382;49.140;9.234;2023-05-07T09:48:37;29.00;92.20
20446;DHT22;10382;49.140;9.234;2023-05-07T09:51:16;29.10;91.50
20446;DHT22;10382;49.140;9.234;2023-05-07T09:53:45;29.20;91.60
20446;DHT22;10382;49.140;9.234;2023-05-07T09:56:14;29.10;90.40
20446;DHT22;10382;49.140;9.234;2023-05-07T09:58:42;28.90;90.10
20446;DHT22;10382;49.140;9.234;2023-05-07T10:01:10;28.80;90.50
20446;DHT22;10382;49.140;9.234;2023-05-07T10:03:40;28.80;91.50
20446;DHT22;10382;49.140;9.234;2023-05-07T10:06:08;29.00;91.40
20446;DHT22;10382;49.140;9.234;2023-05-07T10:08:36;29.20;90.90
20446;DHT22;10382;49.140;9.234;2023-05-07T10:11:04;29.30;88.90
20446;DHT22;10382;49.140;9.234;2023-05-07T10:13:33;29.20;86.10
20446;DHT22;10382;49.140;9.234;2023-05-07T10:16:01;29.40;86.60
20446;DHT22;10382;49.140;9.234;2023-05-07T10:18:30;29.50;86.10
20446;DHT22;10382;49.140;9.234;2023-05-07T10:21:03;29.50;85.30
20446;DHT22;10382;49.140;9.234;2023-05-07T10:23:32;29.40;85.30
20446;DHT22;10382;49.140;9.234;2023-05-07T10:26:01;29.20;86.60
20446;DHT22;10382;49.140;9.234;2023-05-07T10:28:32;29.30;86.70
20446;DHT22;10382;49.140;9.234;2023-05-07T10:31:10;29.30;85.60
20446;DHT22;10382;49.140;9.234;2023-05-07T10:33:42;29.20;84.80
20446;DHT22;10382;49.140;9.234;2023-05-07T10:36:11;29.30;81.50
20446;DHT22;10382;49.140;9.234;2023-05-07T10:38:38;29.40;83.00
20446;DHT22;10382;49.140;9.234;2023-05-07T10:41:06;29.30;82.00
20446;DHT22;10382;49.140;9.234;2023-05-07T10:43:44;29.30;81.80
20446;DHT22;10382;49.140;9.234;2023-05-07T10:46:16;29.20;82.50
20446;DHT22;10382;49.140;9.234;2023-05-07T10:49:08;29.20;80.80
20446;DHT22;10382;49.140;9.234;2023-05-07T10:51:37;29.10;79.00
20446;DHT22;10382;49.140;9.234;2023-05-07T10:54:22;29.20;79.80
20446;DHT22;10382;49.140;9.234;2023-05-07T10:56:52;29.40;76.50
20446;DHT22;10382;49.140;9.234;2023-05-07T10:59:34;29.50;77.00
20446;DHT22;10382;49.140;9.234;2023-05-07T11:02:07;29.10;74.60
20446;DHT22;10382;49.140;9.234;2023-05-07T11:04:35;28.70;75.90
20446;DHT22;10382;49.140;9.234;2023-05-07T11:07:25;28.80;77.00
20446;DHT22;10382;49.140;9.234;2023-05-07T11:10:03;29.20;77.00
20446;DHT22;10382;49.140;9.234;2023-05-07T11:12:50;29.80;73.30
20446;DHT22;10382;49.140;9.234;2023-05-07T11:15:41;30.00;73.30
20446;DHT22;10382;49.140;9.234;2023-05-07T11:18:10;30.40;72.30
20446;DHT22;10382;49.140;9.234;2023-05-07T11:20:54;30.40;69.70
20446;DHT22;10382;49.140;9.234;2023-05-07T11:26:45;30.50;71.80
20446;DHT22;10382;49.140;9.234;2023-05-07T11:29:14;30.80;71.20
20446;DHT22;10382;49.140;9.234;2023-05-07T11:31:42;30.80;68.10
20446;DHT22;10382;49.140;9.234;2023-05-07T11:34:09;30.70;68.00
20446;DHT22;10382;49.140;9.234;2023-05-07T11:36:42;30.70;67.80
20446;DHT22;10382;49.140;9.234;2023-05-07T11:39:26;30.40;66.90
20446;DHT22;10382;49.140;9.234;2023-05-07T11:41:53;30.00;67.40
20446;DHT22;10382;49.140;9.234;2023-05-07T11:44:19;29.80;67.40
20446;DHT22;10382;49.140;9.234;2023-05-07T11:46:48;29.70;68.00
20446;DHT22;10382;49.140;9.234;2023-05-07T11:49:16;29.40;69.30
20446;DHT22;10382;49.140;9.234;2023-05-07T11:51:43;29.10;68.70
20446;DHT22;10382;49.140;9.234;2023-05-07T11:54:15;28.60;68.40
20446;DHT22;10382;49.140;9.234;2023-05-07T11:56:43;28.00;70.40
20446;DHT22;10382;49.140;9.234;2023-05-07T11:59:10;27.70;71.00
20446;DHT22;10382;49.140;9.234;2023-05-07T12:01:37;27.90;72.70
20446;DHT22;10382;49.140;9.234;2023-05-07T12:04:06;28.30;71.40
20446;DHT22;10382;49.140;9.234;2023-05-07T12:06:36;28.60;71.90
20446;DHT22;10382;49.140;9.234;2023-05-07T12:09:03;28.90;70.60
20446;DHT22;10382;49.140;9.234;2023-05-07T12:11:32;28.70;71.00
20446;DHT22;10382;49.140;9.234;2023-05-07T12:13:59;29.00;69.90
20446;DHT22;10382;49.140;9.234;2023-05-07T12:16:26;28.90;70.60
20446;DHT22;10382;49.140;9.234;2023-05-07T12:18:53;29.20;69.90
20446;DHT22;10382;49.140;9.234;2023-05-07T12:21:22;29.70;70.00
20446;DHT22;10382;49.140;9.234;2023-05-07T12:23:49;30.30;68.40
20446;DHT22;10382;49.140;9.234;2023-05-07T12:26:17;30.80;65.70
20446;DHT22;10382;49.140;9.234;2023-05-07T12:28:46;31.30;64.80
20446;DHT22;10382;49.140;9.234;2023-05-07T12:31:14;31.60;62.10
20446;DHT22;10382;49.140;9.234;2023-05-07T12:33:42;31.70;61.00
20446;DHT22;10382;49.140;9.234;2023-05-07T12:36:11;30.70;61.10
20446;DHT22;10382;49.140;9.234;2023-05-07T12:38:40;29.40;63.30
20446;DHT22;10382;49.140;9.234;2023-05-07T12:41:09;29.20;66.60
20446;DHT22;10382;49.140;9.234;2023-05-07T12:43:36;29.20;65.20
20446;DHT22;10382;49.140;9.234;2023-05-07T12:46:04;28.90;66.50
20446;DHT22;10382;49.140;9.234;2023-05-07T12:48:31;28.80;66.20
20446;DHT22;10382;49.140;9.234;2023-05-07T12:51:00;28.80;65.90
20446;DHT22;10382;49.140;9.234;2023-05-07T12:53:28;29.10;66.70
20446;DHT22;10382;49.140;9.234;2023-05-07T12:55:58;29.30;66.10
20446;DHT22;10382;49.140;9.234;2023-05-07T12:58:27;28.90;66.20
20446;DHT22;10382;49.140;9.234;2023-05-07T13:00:55;28.50;65.80
20446;DHT22;10382;49.140;9.234;2023-05-07T13:03:28;28.40;67.50
20446;DHT22;10382;49.140;9.234;2023-05-07T13:05:56;28.00;68.80
20446;DHT22;10382;49.140;9.234;2023-05-07T13:08:28;28.20;67.00
20446;DHT22;10382;49.140;9.234;2023-05-07T13:10:58;28.30;68.30
20446;DHT22;10382;49.140;9.234;2023-05-07T13:13:25;28.60;66.80
20446;DHT22;10382;49.140;9.234;2023-05-07T13:15:52;28.50;66.40
20446;DHT22;10382;49.140;9.234;2023-05-07T13:18:19;28.40;68.50
20446;DHT22;10382;49.140;9.234;2023-05-07T13:20:45;28.20;68.20
20446;DHT22;10382;49.140;9.234;2023-05-07T13:23:12;27.60;67.50
20446;DHT22;10382;49.140;9.234;2023-05-07T13:25:39;27.40;69.50
20446;DHT22;10382;49.140;9.234;2023-05-07T13:28:07;27.30;70.60
20446;DHT22;10382;49.140;9.234;2023-05-07T13:30:34;27.30;70.20
20446;DHT22;10382;49.140;9.234;2023-05-07T13:33:01;27.10;71.60
20446;DHT22;10382;49.140;9.234;2023-05-07T13:35:28;27.10;72.50
20446;DHT22;10382;49.140;9.234;2023-05-07T13:37:55;26.80;76.50
20446;DHT22;10382;49.140;9.234;2023-05-07T13:40:22;26.50;76.20
20446;DHT22;10382;49.140;9.234;2023-05-07T13:42:50;26.30;78.40
20446;DHT22;10382;49.140;9.234;2023-05-07T13:45:18;26.20;78.80
20446;DHT22;10382;49.140;9.234;2023-05-07T13:47:46;26.10;79.70
20446;DHT22;10382;49.140;9.234;2023-05-07T13:50:15;25.80;79.40
20446;DHT22;10382;49.140;9.234;2023-05-07T13:52:42;25.80;81.40
20446;DHT22;10382;49.140;9.234;2023-05-07T13:55:11;25.70;81.10
20446;DHT22;10382;49.140;9.234;2023-05-07T13:57:38;25.70;82.10
20446;DHT22;10382;49.140;9.234;2023-05-07T14:00:06;25.60;82.70
20446;DHT22;10382;49.140;9.234;2023-05-07T14:02:34;24.80;84.60
20446;DHT22;10382;49.140;9.234;2023-05-07T14:05:01;24.80;85.10
20446;DHT22;10382;49.140;9.234;2023-05-07T14:07:28;24.80;87.00
20446;DHT22;10382;49.140;9.234;2023-05-07T14:09:56;24.50;93.00
20446;DHT22;10382;49.140;9.234;2023-05-07T14:12:34;23.60;97.90
20446;DHT22;10382;49.140;9.234;2023-05-07T14:15:01;22.90;99.90
20446;DHT22;10382;49.140;9.234;2023-05-07T14:17:28;22.20;99.90
20446;DHT22;10382;49.140;9.234;2023-05-07T14:19:57;21.40;99.90
20446;DHT22;10382;49.140;9.234;2023-05-07T14:22:24;20.70;99.90
20446;DHT22;10382;49.140;9.234;2023-05-07T14:24:51;20.00;99.90
20446;DHT22;10382;49.140;9.234;2023-05-07T14:27:18;19.60;99.90
20446;DHT22;10382;49.140;9.234;2023-05-07T14:29:45;19.30;99.90
20446;DHT22;10382;49.140;9.234;2023-05-07T14:32:16;19.00;99.90
20446;DHT22;10382;49.140;9.234;2023-05-07T14:34:43;18.70;99.90
20446;DHT22;10382;49.140;9.234;2023-05-07T14:37:11;18.50;99.90
20446;DHT22;10382;49.140;9.234;2023-05-07T14:39:38;18.50;99.90
20446;DHT22;10382;49.140;9.234;2023-05-07T14:42:05;18.40;99.90
20446;DHT22;10382;49.140;9.234;2023-05-07T14:44:33;18.30;99.90
20446;DHT22;10382;49.140;9.234;2023-05-07T14:47:00;18.40;99.90
20446;DHT22;10382;49.140;9.234;2023-05-07T14:49:27;18.60;99.90
20446;DHT22;10382;49.140;9.234;2023-05-07T14:51:53;18.60;99.90
20446;DHT22;10382;49.140;9.234;2023-05-07T14:54:22;18.70;99.90
20446;DHT22;10382;49.140;9.234;2023-05-07T14:56:49;18.70;99.90
20446;DHT22;10382;49.140;9.234;2023-05-07T14:59:17;18.60;99.90
20446;DHT22;10382;49.140;9.234;2023-05-07T15:01:46;18.70;99.90
20446;DHT22;10382;49.140;9.234;2023-05-07T15:04:13;18.70;99.90
20446;DHT22;10382;49.140;9.234;2023-05-07T15:06:40;18.80;99.90
20446;DHT22;10382;49.140;9.234;2023-05-07T15:09:07;19.00;99.90
20446;DHT22;10382;49.140;9.234;2023-05-07T15:11:35;18.90;99.90
20446;DHT22;10382;49.140;9.234;2023-05-07T15:14:02;18.80;99.90
20446;DHT22;10382;49.140;9.234;2023-05-07T15:16:29;18.80;99.90
20446;DHT22;10382;49.140;9.234;2023-05-07T15:18:57;18.80;99.90
20446;DHT22;10382;49.140;9.234;2023-05-07T15:21:24;18.70;99.90
20446;DHT22;10382;49.140;9.234;2023-05-07T15:23:52;18.90;99.90
20446;DHT22;10382;49.140;9.234;2023-05-07T15:26:19;19.00;99.90
20446;DHT22;10382;49.140;9.234;2023-05-07T15:28:47;19.20;99.90
20446;DHT22;10382;49.140;9.234;2023-05-07T15:31:15;19.40;99.90
20446;DHT22;10382;49.140;9.234;2023-05-07T15:33:42;19.60;99.90
20446;DHT22;10382;49.140;9.234;2023-05-07T15:36:10;19.90;99.90
20446;DHT22;10382;49.140;9.234;2023-05-07T15:38:36;20.10;99.90